Terminal Aerodrome Forecast
Issued by NWS

Home | Current Version | Previous Version | Text Only | Print | Product List | Glossary On
Versions: 1 2 3 4 5 6 7 8 9 10 11 12 13 14 15 16 17 18 19 20 21 22 23 24 25 26 27 28
000
FTUS45 KABQ 181724
TAFLVS
TAF
KLVS 181724Z 1818/1918 29020G30KT P6SM BKN080
      TEMPO 1818/1820 3SM -SN BKN030
     FM182000 32025G35KT P6SM BKN100
     FM190200 36013KT P6SM BKN100
     FM190700 35009KT P6SM FEW100=

USA.gov is the U.S. government's official web portal to all federal, state and local government web resources and services.